Time;durP1;ratioP1;P1;durP2;ratioP2;P2;SDS_P1;SDS_P2;PMS_P1;PMS_P2;Temp;Humidity;BMP_temperature;BMP_pressure;BME280_temperature;BME280_humidity;BME280_pressure;Samples;Min_cycle;Max_cycle;Signal;HPM_P1;HPM_P2
2021/08/21 00:02:21;;;;;;;;;;;17.00;96.50;;;16.73;89.09;100798.34;5010644;28;20016;-67
2021/08/21 00:04:51;;;;;;;;;;;17.00;96.40;;;16.71;89.19;100798.53;5010239;28;19976;-67
2021/08/21 00:07:18;;;;;;;;;;;17.00;96.60;;;16.70;89.00;100794.13;5010405;28;19932;-67
2021/08/21 00:09:46;;;;;;;;;;;16.90;96.50;;;16.68;88.94;100790.75;4992869;28;20408;-67
2021/08/21 00:12:13;;;;;;;;;;;16.90;96.50;;;16.66;88.99;100787.38;5010495;28;20121;-67
2021/08/21 00:14:41;;;;;;;;;;;16.90;96.60;;;16.66;89.02;100786.53;5010625;28;20392;-67
2021/08/21 00:17:08;;;;;;;;;;;16.90;96.60;;;16.64;88.96;100784.00;5010595;28;19929;-67
2021/08/21 00:19:36;;;;;;;;;;;16.90;96.70;;;16.61;88.78;100785.28;5000426;28;19932;-67
2021/08/21 00:22:03;;;;;;;;;;;16.80;96.60;;;16.59;88.96;100792.06;5009926;28;20363;-66
2021/08/21 00:24:30;;;;;;;;;;;16.80;96.50;;;16.59;89.03;100786.56;5010484;28;20348;-66
2021/08/21 00:26:57;;;;;;;;;;;16.80;96.50;;;16.57;88.75;100794.19;5010336;28;19949;-67
2021/08/21 00:29:24;;;;;;;;;;;16.80;96.30;;;16.55;88.62;100793.56;4992718;28;19937;-66
2021/08/21 00:31:53;;;;;;;;;;;16.80;96.40;;;16.52;88.50;100792.06;5010737;28;19957;-67
2021/08/21 00:34:21;;;;;;;;;;;16.70;96.40;;;16.52;88.66;100793.97;5010326;28;19933;-67
2021/08/21 00:36:48;;;;;;;;;;;16.70;96.50;;;16.49;88.75;100792.53;4992216;28;19925;-67
2021/08/21 00:39:17;;;;;;;;;;;16.70;96.60;;;16.47;88.59;100793.78;4991539;28;19929;-66
2021/08/21 00:41:44;;;;;;;;;;;16.70;96.40;;;16.46;88.69;100789.38;4992253;28;19934;-67
2021/08/21 00:44:11;;;;;;;;;;;16.70;96.40;;;16.43;88.51;100798.91;5009471;28;19929;-67
2021/08/21 00:46:55;;;;;;;;;;;16.60;96.30;;;16.44;88.45;100788.75;5010002;28;19969;-67
2021/08/21 00:49:23;;;;;;;;;;;16.60;96.30;;;16.41;88.50;100790.88;4991827;28;20008;-66
2021/08/21 00:51:50;;;;;;;;;;;16.60;96.30;;;16.41;88.40;100790.00;4991208;28;19929;-66
2021/08/21 00:54:17;;;;;;;;;;;16.60;96.30;;;16.38;88.53;100790.44;5008377;28;20012;-67
2021/08/21 00:56:45;;;;;;;;;;;16.60;96.30;;;16.37;88.29;100786.88;4992260;28;19933;-66
2021/08/21 00:59:13;;;;;;;;;;;16.60;96.30;;;16.35;88.33;100788.97;4991034;28;19929;-66
2021/08/21 01:01:40;;;;;;;;;;;16.60;96.30;;;16.35;88.22;100790.88;4992240;28;19929;-67
2021/08/21 01:04:09;;;;;;;;;;;16.50;96.20;;;16.34;88.24;100784.53;4991899;28;20383;-67
2021/08/21 01:06:36;;;;;;;;;;;16.50;96.30;;;16.32;88.17;100791.31;4991608;28;20740;-67
2021/08/21 01:09:04;;;;;;;;;;;16.50;96.40;;;16.30;88.31;100787.94;4991861;28;19933;-66
2021/08/21 01:11:32;;;;;;;;;;;16.50;96.50;;;16.29;88.29;100787.09;4991423;28;19957;-67
2021/08/21 01:13:59;;;;;;;;;;;16.50;96.50;;;16.27;88.25;100785.63;4991763;28;19925;-66
2021/08/21 01:16:26;;;;;;;;;;;16.50;96.40;;;16.28;87.97;100785.41;4990795;28;20475;-66
2021/08/21 01:18:55;;;;;;;;;;;16.40;96.30;;;16.27;88.06;100789.19;4991331;28;20002;-67
2021/08/21 01:21:24;;;;;;;;;;;16.40;96.30;;;16.25;87.86;100785.81;4990828;28;20531;-66
2021/08/21 01:23:52;;;;;;;;;;;16.50;96.40;;;16.21;88.01;100784.56;5008994;28;19983;-66
2021/08/21 01:26:26;;;;;;;;;;;16.40;96.30;;;16.18;88.02;100785.00;4991017;28;19936;-67
2021/08/21 01:29:06;;;;;;;;;;;16.40;96.40;;;16.19;87.98;100786.69;4991382;28;19940;-67
2021/08/21 01:31:40;;;;;;;;;;;16.40;96.40;;;16.19;87.87;100786.69;5008654;28;19930;-67
2021/08/21 01:34:08;;;;;;;;;;;16.40;96.30;;;16.18;87.77;100790.50;4990992;28;19938;-67
2021/08/21 01:36:42;;;;;;;;;;;16.30;96.30;;;16.14;87.76;100790.06;4990461;28;19952;-67
2021/08/21 01:39:38;;;;;;;;;;;16.30;96.30;;;16.12;87.93;100785.88;4994906;28;19929;-66
2021/08/21 01:42:22;;;;;;;;;;;16.30;96.40;;;16.11;87.96;100781.44;4990809;28;19925;-67
2021/08/21 01:44:51;;;;;;;;;;;16.30;96.40;;;16.12;87.76;100785.88;5008041;28;19926;-67
2021/08/21 01:47:19;;;;;;;;;;;16.30;96.40;;;16.09;87.76;100789.88;4990874;28;20008;-66
2021/08/21 01:49:52;;;;;;;;;;;16.20;96.30;;;16.08;87.85;100790.09;4990414;28;20016;-67
2021/08/21 01:52:20;;;;;;;;;;;16.20;96.30;;;16.07;87.78;100785.66;4990187;28;20316;-67
2021/08/21 01:54:47;;;;;;;;;;;16.20;96.20;;;16.06;87.99;100792.22;4989813;28;20102;-67
2021/08/21 01:57:14;;;;;;;;;;;16.20;96.40;;;16.02;88.19;100789.88;4990471;28;20011;-67
2021/08/21 01:59:52;;;;;;;;;;;16.20;96.60;;;16.02;88.33;100787.13;4990517;28;19964;-67
2021/08/21 02:02:24;;;;;;;;;;;16.20;96.70;;;16.02;88.30;100789.88;4990381;28;19980;-67
2021/08/21 02:05:10;;;;;;;;;;;16.20;96.60;;;16.02;88.49;100791.78;4989401;28;19931;-67
2021/08/21 02:07:37;;;;;;;;;;;16.20;96.70;;;16.00;88.24;100786.50;5008293;28;19929;-67
2021/08/21 02:10:06;;;;;;;;;;;16.20;96.50;;;16.04;88.04;100789.69;4990331;28;20396;-66
2021/08/21 02:12:34;;;;;;;;;;;16.20;96.50;;;16.02;87.92;100795.38;5008473;28;19929;-66
2021/08/21 02:15:07;;;;;;;;;;;16.20;96.50;;;16.00;88.03;100783.78;5007616;28;20400;-67
2021/08/21 02:17:35;;;;;;;;;;;16.20;96.60;;;15.99;88.00;100783.97;4990365;28;19933;-66
2021/08/21 02:20:25;;;;;;;;;;;16.20;96.50;;;15.96;87.97;100788.00;4989778;28;19929;-67
2021/08/21 02:22:53;;;;;;;;;;;16.10;96.50;;;15.94;87.77;100779.16;4990036;28;19948;-66
2021/08/21 02:25:20;;;;;;;;;;;16.10;96.40;;;15.95;87.74;100785.47;4989954;28;20056;-66
2021/08/21 02:27:57;;;;;;;;;;;16.10;96.40;;;15.94;87.55;100781.88;4990326;28;19933;-66
2021/08/21 02:30:26;;;;;;;;;;;16.10;96.30;;;15.92;87.59;100781.25;4990025;28;19929;-66
2021/08/21 02:32:53;;;;;;;;;;;16.00;96.30;;;15.91;87.54;100776.81;5007760;28;20016;-67
2021/08/21 02:35:20;;;;;;;;;;;16.00;96.30;;;15.88;87.63;100785.50;4989812;28;19929;-66
2021/08/21 02:37:47;;;;;;;;;;;16.00;96.40;;;15.89;87.47;100781.69;4988816;28;20392;-67
2021/08/21 02:40:15;;;;;;;;;;;16.00;96.40;;;15.87;87.51;100778.31;5007799;28;19929;-67
2021/08/21 02:42:42;;;;;;;;;;;16.00;96.40;;;15.85;87.48;100779.59;5007061;28;20388;-66
2021/08/21 02:45:10;;;;;;;;;;;16.00;96.50;;;15.83;87.41;100777.03;5007029;28;19929;-66
2021/08/21 02:47:39;;;;;;;;;;;16.00;96.40;;;15.83;87.42;100774.31;5006889;28;19972;-66
2021/08/21 02:50:07;;;;;;;;;;;16.00;96.50;;;15.81;87.48;100771.75;4988850;28;19933;-66
2021/08/21 02:52:34;;;;;;;;;;;16.00;96.50;;;15.79;87.45;100765.66;5007624;28;19930;-66
2021/08/21 02:55:02;;;;;;;;;;;16.00;96.50;;;15.78;87.40;100763.97;5007357;28;19929;-66
2021/08/21 02:57:31;;;;;;;;;;;15.90;96.40;;;15.78;87.37;100763.09;4989973;28;19980;-66
2021/08/21 02:59:59;;;;;;;;;;;15.90;96.40;;;15.78;87.34;100771.34;4990208;28;19987;-66
2021/08/21 03:02:36;;;;;;;;;;;15.90;96.40;;;15.76;87.33;100770.72;4988207;28;19934;-67
2021/08/21 03:05:04;;;;;;;;;;;15.90;96.50;;;15.73;87.42;100782.09;4988910;28;19948;-66
2021/08/21 03:07:32;;;;;;;;;;;15.90;96.50;;;15.73;87.44;100773.88;4989672;28;19951;-66
2021/08/21 03:10:04;;;;;;;;;;;15.90;96.40;;;15.71;87.37;100768.59;4990140;28;19978;-67
2021/08/21 03:12:44;;;;;;;;;;;15.90;96.50;;;15.71;87.22;100775.97;4990409;28;19929;-66
2021/08/21 03:15:11;;;;;;;;;;;15.90;96.50;;;15.69;87.22;100780.81;4988433;28;20020;-66
2021/08/21 03:17:38;;;;;;;;;;;15.80;96.30;;;15.70;87.03;100777.03;4989824;28;19961;-67
2021/08/21 03:20:08;;;;;;;;;;;15.80;96.30;;;15.67;87.05;100777.44;4989115;28;19925;-66
2021/08/21 03:22:37;;;;;;;;;;;15.80;96.40;;;15.67;86.88;100774.69;4992197;28;19933;-66
2021/08/21 03:25:06;;;;;;;;;;;15.80;96.40;;;15.64;87.04;100776.81;4993237;28;19929;-67
2021/08/21 03:27:33;;;;;;;;;;;15.80;96.50;;;15.62;87.48;100769.84;4993169;28;19933;-66
2021/08/21 03:30:01;;;;;;;;;;;15.80;96.60;;;15.63;87.42;100782.50;4993279;28;19968;-66
2021/08/21 03:32:29;;;;;;;;;;;15.80;96.60;;;15.60;87.39;100774.72;4993306;28;19925;-66
2021/08/21 03:34:57;;;;;;;;;;;15.80;96.60;;;15.59;87.44;100771.13;4992857;28;19929;-66
2021/08/21 03:37:26;;;;;;;;;;;15.80;96.50;;;15.58;87.43;100774.91;4993612;28;19937;-66
2021/08/21 03:39:54;;;;;;;;;;;15.70;96.60;;;15.58;87.35;100774.06;4993529;28;19926;-67
2021/08/21 03:42:21;;;;;;;;;;;15.70;96.60;;;15.57;87.37;100776.00;4992636;28;19929;-67
2021/08/21 03:44:54;;;;;;;;;;;15.70;96.70;;;15.57;87.35;100770.50;4992730;28;20435;-67
2021/08/21 03:47:22;;;;;;;;;;;15.70;96.70;;;15.55;87.45;100769.84;4992912;28;19929;-66
2021/08/21 03:49:50;;;;;;;;;;;15.60;96.60;;;15.55;87.30;100769.84;5011074;28;19929;-66
2021/08/21 03:52:17;;;;;;;;;;;15.70;96.70;;;15.54;87.29;100770.06;4992697;28;19933;-66
2021/08/21 03:54:46;;;;;;;;;;;15.60;96.60;;;15.54;87.25;100768.16;4992755;28;19929;-66
2021/08/21 03:57:13;;;;;;;;;;;15.60;96.60;;;15.51;87.36;100774.06;4992690;28;19965;-66
2021/08/21 03:59:40;;;;;;;;;;;15.60;96.70;;;15.50;87.63;100769.66;4992853;28;20028;-66
2021/08/21 04:02:09;;;;;;;;;;;15.60;96.90;;;15.50;87.57;100772.41;5010313;28;19930;-67
2021/08/21 04:04:37;;;;;;;;;;;15.60;96.90;;;15.51;87.43;100765.84;4991979;28;19937;-68
2021/08/21 04:07:09;;;;;;;;;;;15.60;96.90;;;15.49;87.61;100770.69;4992710;28;20015;-68
2021/08/21 04:09:36;;;;;;;;;;;15.60;96.90;;;15.49;87.37;100772.59;4992702;28;19926;-68
2021/08/21 04:12:05;;;;;;;;;;;15.60;96.70;;;15.48;87.41;100773.63;4992556;28;20120;-68
2021/08/21 04:14:40;;;;;;;;;;;15.60;96.70;;;15.46;87.59;100765.66;4992125;28;19933;-67
2021/08/21 04:17:07;;;;;;;;;;;15.60;96.70;;;15.44;87.26;100768.59;4992180;28;19930;-67
2021/08/21 04:19:34;;;;;;;;;;;15.60;96.50;;;15.47;87.38;100769.22;4992338;28;19936;-68
2021/08/21 04:22:04;;;;;;;;;;;15.60;96.40;;;15.46;87.21;100771.13;4991818;28;19925;-68
2021/08/21 04:24:46;;;;;;;;;;;15.60;96.50;;;15.43;87.54;100777.84;4991986;28;20428;-68
2021/08/21 04:27:15;;;;;;;;;;;15.60;96.70;;;15.42;87.72;100775.31;4992273;28;19929;-68
2021/08/21 04:29:43;;;;;;;;;;;15.60;96.70;;;15.45;87.84;100772.16;4991704;28;19933;-68
2021/08/21 04:32:14;;;;;;;;;;;15.60;96.80;;;15.45;87.94;100774.91;4991784;28;19929;-68
2021/08/21 04:34:41;;;;;;;;;;;15.60;96.90;;;15.44;88.18;100781.47;4991617;28;19929;-68
2021/08/21 04:37:13;;;;;;;;;;;15.70;97.10;;;15.45;88.44;100773.00;4992070;28;19935;-68
2021/08/21 04:39:43;;;;;;;;;;;15.70;97.30;;;15.45;88.87;100775.75;4992034;28;19929;-68
2021/08/21 04:42:14;;;;;;;;;;;15.80;97.40;;;15.47;89.13;100775.53;4991359;28;20303;-68
2021/08/21 04:44:42;;;;;;;;;;;15.80;97.50;;;15.47;89.40;100778.28;4991619;28;19929;-68
2021/08/21 04:47:11;;;;;;;;;;;15.80;97.50;;;15.50;89.88;100774.28;4991886;28;19964;-68
2021/08/21 04:49:40;;;;;;;;;;;15.90;97.80;;;15.52;89.96;100774.94;4992090;28;19929;-68
2021/08/21 04:52:08;;;;;;;;;;;15.90;97.80;;;15.54;90.21;100776.41;4991389;28;19936;-68
2021/08/21 04:54:37;;;;;;;;;;;16.00;97.60;;;15.53;90.48;100774.69;4991546;28;20052;-68
2021/08/21 04:57:04;;;;;;;;;;;16.10;97.50;;;15.56;90.69;100777.03;4991474;28;19929;-68
2021/08/21 04:59:40;;;;;;;;;;;16.10;97.70;;;15.59;90.58;100781.25;4991808;28;19929;-68
2021/08/21 05:02:08;;;;;;;;;;;16.10;97.50;;;15.59;90.92;100776.63;4991278;28;19967;-68
2021/08/21 05:04:36;;;;;;;;;;;16.20;97.40;;;15.62;91.17;100778.91;4991435;28;20137;-68
2021/08/21 05:07:04;;;;;;;;;;;16.20;97.70;;;15.63;91.55;100788.84;4991169;28;20029;-68
2021/08/21 05:09:32;;;;;;;;;;;16.20;97.60;;;15.67;91.48;100783.78;4991389;28;19936;-68
2021/08/21 05:12:05;;;;;;;;;;;16.30;97.60;;;15.69;91.39;100786.28;4991482;28;20396;-68
2021/08/21 05:14:42;;;;;;;;;;;16.40;97.30;;;15.70;91.67;100785.25;4990857;28;20428;-68
2021/08/21 05:17:09;;;;;;;;;;;16.40;97.30;;;15.72;91.83;100783.13;4991089;28;20396;-68
2021/08/21 05:20:04;;;;;;;;;;;16.40;97.40;;;15.74;92.01;100783.81;5008519;28;19930;-69
2021/08/21 05:22:49;;;;;;;;;;;16.40;97.30;;;15.75;92.17;100786.34;4991341;28;19929;-68
2021/08/21 05:25:16;;;;;;;;;;;16.50;97.40;;;15.75;92.17;100777.28;4990830;28;20025;-68
2021/08/21 05:27:44;;;;;;;;;;;16.50;97.20;;;15.77;92.64;100783.38;4991247;28;19929;-68
2021/08/21 05:30:13;;;;;;;;;;;16.60;97.20;;;15.80;92.86;100782.94;4991075;28;19968;-68
2021/08/21 05:32:40;;;;;;;;;;;16.60;97.40;;;15.83;92.78;100774.31;4990989;28;19925;-68
2021/08/21 05:35:08;;;;;;;;;;;16.70;97.20;;;15.84;92.80;100778.75;4989972;28;19968;-68
2021/08/21 05:37:35;;;;;;;;;;;16.70;97.10;;;15.85;92.75;100777.66;4990790;28;19991;-68
2021/08/21 05:40:02;;;;;;;;;;;16.70;97.00;;;15.87;92.74;100782.97;5008157;28;19933;-68
2021/08/21 05:42:30;;;;;;;;;;;16.80;96.90;;;15.88;93.03;100780.00;5008659;28;19933;-68
2021/08/21 05:44:57;;;;;;;;;;;16.80;96.90;;;15.91;93.20;100773.22;5006801;28;20549;-68
2021/08/21 05:47:26;;;;;;;;;;;16.80;97.00;;;15.91;93.51;100776.81;5008779;28;20362;-68
2021/08/21 05:49:53;;;;;;;;;;;16.90;97.20;;;15.95;93.65;100769.84;5007939;28;19975;-68
2021/08/21 05:52:20;;;;;;;;;;;16.90;97.10;;;15.98;93.63;100774.91;5021632;23;19925;-67
2021/08/21 05:54:47;;;;;;;;;;;16.90;97.10;;;16.01;94.36;100779.13;4999677;28;19929;-68
2021/08/21 05:57:26;;;;;;;;;;;17.00;97.30;;;16.02;94.49;100776.16;4979659;28;19930;-67
2021/08/21 05:59:53;;;;;;;;;;;17.00;97.30;;;16.04;94.33;100773.22;4998109;28;19949;-67
2021/08/21 06:02:20;;;;;;;;;;;17.00;97.10;;;16.05;94.60;100774.91;4999926;28;19930;-68
2021/08/21 06:04:49;;;;;;;;;;;17.10;96.90;;;16.09;94.50;100775.28;4999139;28;19936;-67
2021/08/21 06:07:16;;;;;;;;;;;17.20;96.90;;;16.11;94.95;100779.53;4989707;28;20033;-67
2021/08/21 06:09:43;;;;;;;;;;;17.20;97.10;;;16.14;94.46;100772.75;4998916;28;19935;-68
2021/08/21 06:12:10;;;;;;;;;;;17.20;96.80;;;16.15;95.01;100778.03;4981637;28;19980;-67
2021/08/21 06:14:39;;;;;;;;;;;17.30;96.80;;;16.18;95.10;100774.00;4997691;28;19966;-67
2021/08/21 06:17:07;;;;;;;;;;;17.30;96.60;;;16.19;95.20;100782.03;4997861;28;19925;-70
2021/08/21 06:19:34;;;;;;;;;;;17.40;96.60;;;16.22;95.37;100780.75;4998854;28;19984;-69
2021/08/21 06:22:03;;;;;;;;;;;17.40;96.60;;;16.25;95.76;100783.09;4999371;28;19980;-67
2021/08/21 06:24:31;;;;;;;;;;;17.50;96.70;;;16.29;95.41;100780.75;5001874;28;20012;-68
2021/08/21 06:26:58;;;;;;;;;;;17.50;96.80;;;16.31;95.53;100779.47;5000504;28;19996;-67
2021/08/21 06:29:26;;;;;;;;;;;17.60;96.70;;;16.36;95.96;100782.41;5003226;28;20392;-68
2021/08/21 06:31:53;;;;;;;;;;;17.60;96.60;;;16.40;96.55;100780.09;4996319;28;19929;-67
2021/08/21 06:34:20;;;;;;;;;;;17.70;96.80;;;16.44;96.80;100783.25;4994874;28;19938;-67
2021/08/21 06:36:47;;;;;;;;;;;17.80;96.70;;;16.48;96.86;100779.00;4999339;28;19984;-67
2021/08/21 06:39:15;;;;;;;;;;;17.90;96.20;;;16.50;96.75;100782.38;4996289;28;19952;-67
2021/08/21 06:41:42;;;;;;;;;;;18.00;95.90;;;16.54;97.32;100784.44;4994913;28;20360;-67
2021/08/21 06:44:09;;;;;;;;;;;18.10;96.10;;;16.60;98.04;100789.09;4998498;28;19956;-66
2021/08/21 06:46:43;;;;;;;;;;;18.30;95.90;;;16.68;97.81;100785.25;4997019;28;20412;-65
2021/08/21 06:49:10;;;;;;;;;;;18.50;95.50;;;16.73;98.32;100787.34;4997821;28;19929;-65
2021/08/21 06:51:37;;;;;;;;;;;18.50;95.20;;;16.77;97.75;100789.44;4996894;28;19941;-67
2021/08/21 06:54:04;;;;;;;;;;;18.60;94.90;;;16.81;98.54;100784.34;4997392;28;20500;-66
2021/08/21 06:56:33;;;;;;;;;;;18.70;95.00;;;16.86;97.73;100787.31;4997827;28;20389;-66
2021/08/21 06:59:00;;;;;;;;;;;18.70;94.60;;;16.91;97.61;100779.25;4987767;28;19929;-66
2021/08/21 07:01:29;;;;;;;;;;;18.70;94.70;;;16.95;97.71;100785.16;4997153;28;19937;-66
2021/08/21 07:03:56;;;;;;;;;;;18.80;94.80;;;16.98;98.17;100784.69;4997509;28;20456;-66
2021/08/21 07:06:23;;;;;;;;;;;18.80;95.00;;;17.03;97.94;100782.13;4998884;28;19991;-65
2021/08/21 07:08:50;;;;;;;;;;;18.90;94.60;;;17.05;98.10;100777.25;4998542;28;19972;-65
2021/08/21 07:11:17;;;;;;;;;;;18.90;94.30;;;17.09;98.17;100781.25;4997782;28;19930;-66
2021/08/21 07:13:46;;;;;;;;;;;18.90;94.60;;;17.14;98.48;100775.94;4996226;28;19996;-65
2021/08/21 07:16:14;;;;;;;;;;;19.00;94.60;;;17.18;99.11;100774.41;4998079;28;19925;-65
2021/08/21 07:18:41;;;;;;;;;;;19.20;94.70;;;17.25;98.86;100777.13;4996962;28;20352;-65
2021/08/21 07:21:09;;;;;;;;;;;19.40;93.80;;;17.33;99.00;100773.28;4999897;28;19980;-65
2021/08/21 07:23:36;;;;;;;;;;;19.60;93.80;;;17.40;98.93;100763.03;4995230;28;19925;-66
2021/08/21 07:26:04;;;;;;;;;;;19.70;93.50;;;17.46;98.98;100770.41;4993985;28;19925;-66
2021/08/21 07:28:31;;;;;;;;;;;19.90;92.40;;;17.53;98.76;100771.19;4997421;28;19984;-66
2021/08/21 07:31:00;;;;;;;;;;;20.00;92.50;;;17.59;100.00;100767.56;4995737;28;19933;-66
2021/08/21 07:33:28;;;;;;;;;;;20.20;92.10;;;17.65;99.37;100776.81;4997926;28;20456;-66
2021/08/21 07:35:56;;;;;;;;;;;20.30;91.90;;;17.72;99.60;100774.84;4991197;28;19936;-66
2021/08/21 07:38:23;;;;;;;;;;;20.40;91.50;;;17.80;100.00;100779.25;5001427;28;20619;-68
2021/08/21 07:40:50;;;;;;;;;;;20.50;91.70;;;17.84;100.00;100775.00;5003464;28;19936;-66
2021/08/21 07:43:17;;;;;;;;;;;20.50;91.50;;;17.88;100.00;100773.47;4996807;28;20016;-66
2021/08/21 07:45:46;;;;;;;;;;;20.60;91.10;;;17.94;100.00;100772.56;4994700;28;20795;-66
2021/08/21 07:48:15;;;;;;;;;;;20.60;91.30;;;18.02;100.00;100773.34;4996997;28;19933;-66
2021/08/21 07:50:43;;;;;;;;;;;20.70;91.50;;;18.08;100.00;100778.75;5000406;28;19964;-67
2021/08/21 07:53:10;;;;;;;;;;;20.80;92.10;;;18.16;100.00;100775.72;5008054;28;19933;-66
2021/08/21 07:55:37;;;;;;;;;;;20.80;92.40;;;18.25;100.00;100772.66;5017606;28;20534;-66
2021/08/21 07:58:05;;;;;;;;;;;20.90;92.90;;;18.29;100.00;100780.22;5020722;28;20674;-66
2021/08/21 08:00:33;;;;;;;;;;;21.00;91.60;;;18.35;100.00;100781.22;5016143;28;19932;-66
2021/08/21 08:03:00;;;;;;;;;;;21.10;91.40;;;18.39;100.00;100781.59;4994871;28;19937;-66
2021/08/21 08:05:28;;;;;;;;;;;21.20;90.00;;;18.43;100.00;100786.44;5012729;28;19957;-66
2021/08/21 08:07:56;;;;;;;;;;;21.40;89.70;;;18.51;100.00;100785.28;5013801;28;19933;-66
2021/08/21 08:10:23;;;;;;;;;;;21.50;89.10;;;18.59;99.31;100787.72;5019028;28;20004;-66
2021/08/21 08:12:50;;;;;;;;;;;21.60;88.10;;;18.62;99.23;100784.53;5022177;28;19983;-66
2021/08/21 08:15:17;;;;;;;;;;;21.60;88.10;;;18.67;98.37;100779.13;5018726;28;19971;-66
2021/08/21 08:17:45;;;;;;;;;;;21.70;87.40;;;18.73;97.60;100777.34;5019402;28;19979;-66
2021/08/21 08:20:12;;;;;;;;;;;21.80;86.80;;;18.81;98.38;100778.97;5018301;28;19988;-66
2021/08/21 08:22:41;;;;;;;;;;;21.90;87.40;;;18.83;96.84;100774.06;5018133;28;19929;-66
2021/08/21 08:25:10;;;;;;;;;;;21.90;85.50;;;18.86;95.83;100774.47;5018680;28;19991;-66
2021/08/21 08:27:37;;;;;;;;;;;21.90;85.50;;;18.97;96.94;100778.34;5018397;28;19992;-65
2021/08/21 08:30:06;;;;;;;;;;;22.00;86.50;;;19.17;99.78;100774.44;5018532;28;19933;-65
2021/08/21 08:32:33;;;;;;;;;;;22.10;88.20;;;19.22;97.77;100777.34;5018759;28;19930;-66
2021/08/21 08:35:00;;;;;;;;;;;22.30;86.80;;;19.27;95.24;100777.50;5018283;28;19987;-66
2021/08/21 08:37:27;;;;;;;;;;;22.40;85.10;;;19.35;95.32;100774.38;5022106;28;19995;-67
2021/08/21 08:39:56;;;;;;;;;;;22.60;84.60;;;19.44;97.04;100775.72;5018889;28;19925;-67
2021/08/21 08:42:23;;;;;;;;;;;22.70;85.40;;;19.51;93.96;100781.13;4994289;28;20048;-68
2021/08/21 08:44:50;;;;;;;;;;;22.80;83.50;;;19.56;90.57;100784.03;5022973;28;20650;-67
2021/08/21 08:47:18;;;;;;;;;;;22.80;81.70;;;19.64;92.49;100786.44;5019163;28;19979;-67
2021/08/21 08:49:46;;;;;;;;;;;22.80;82.60;;;19.67;90.50;100785.13;5019300;28;19929;-68
2021/08/21 08:52:14;;;;;;;;;;;22.90;81.90;;;19.63;88.45;100781.13;5014982;28;19936;-67
2021/08/21 08:54:41;;;;;;;;;;;22.90;79.70;;;19.73;91.98;100784.19;5017860;28;19929;-67
2021/08/21 08:57:16;;;;;;;;;;;22.90;82.70;;;19.79;93.22;100783.25;5016172;28;19964;-69
2021/08/21 08:59:44;;;;;;;;;;;23.00;83.20;;;19.89;90.71;100790.94;5020196;28;19951;-69
2021/08/21 09:02:11;;;;;;;;;;;23.00;82.20;;;19.91;89.46;100788.75;5013864;28;19929;-70
2021/08/21 09:04:41;;;;;;;;;;;23.00;81.50;;;19.92;90.27;100787.69;5017684;28;20052;-70
2021/08/21 09:07:10;;;;;;;;;;;23.00;81.50;;;19.90;89.40;100792.63;5013076;28;19960;-70
2021/08/21 09:09:37;;;;;;;;;;;23.00;80.60;;;19.93;89.66;100789.34;5023143;28;19940;-70
2021/08/21 09:12:22;;;;;;;;;;;23.10;81.10;;;19.94;88.28;100793.00;5021398;28;19983;-70
2021/08/21 09:14:50;;;;;;;;;;;23.10;80.40;;;19.97;88.16;100800.78;5023112;28;19929;-70
2021/08/21 09:17:19;;;;;;;;;;;23.20;80.20;;;19.98;90.17;100797.78;5017410;28;19991;-70
2021/08/21 09:19:47;;;;;;;;;;;23.20;81.30;;;20.03;91.40;100797.03;5017796;28;19968;-69
2021/08/21 09:22:15;;;;;;;;;;;23.20;81.80;;;20.05;88.13;100790.22;5016063;28;19929;-70
2021/08/21 09:24:43;;;;;;;;;;;23.30;80.50;;;20.08;89.24;100795.25;5028304;28;20006;-69
2021/08/21 09:27:21;;;;;;;;;;;23.30;80.70;;;20.14;92.12;100781.56;5022717;28;19925;-70
2021/08/21 09:30:07;;;;;;;;;;;23.30;82.70;;;20.16;91.18;100779.38;5020526;28;19929;-69
2021/08/21 09:32:35;;;;;;;;;;;23.30;82.10;;;20.18;93.43;100777.22;5017226;28;20016;-70
2021/08/21 09:35:04;;;;;;;;;;;23.20;83.40;;;20.18;90.30;100775.31;5000193;28;20016;-69
2021/08/21 09:37:46;;;;;;;;;;;23.20;82.20;;;20.20;88.34;100784.19;5026057;28;20620;-70
2021/08/21 09:40:22;;;;;;;;;;;23.10;81.10;;;20.21;87.60;100780.34;5022954;28;19925;-70
2021/08/21 09:42:49;;;;;;;;;;;23.00;81.20;;;20.20;86.44;100772.28;4986682;28;19937;-66
2021/08/21 09:45:20;;;;;;;;;;;22.90;81.00;;;20.25;86.73;100778.78;5015464;28;19929;-68
2021/08/21 09:47:47;;;;;;;;;;;22.90;81.20;;;20.25;85.70;100764.94;5001711;28;19936;-66
2021/08/21 09:50:16;;;;;;;;;;;22.90;81.00;;;20.26;83.81;100768.56;5017494;28;20654;-66
2021/08/21 09:52:43;;;;;;;;;;;22.90;79.80;;;20.25;82.92;100775.16;4997284;28;19936;-66
2021/08/21 09:55:15;;;;;;;;;;;22.90;79.10;;;20.21;82.13;100758.22;4997506;28;20459;-66
2021/08/21 09:57:42;;;;;;;;;;;22.80;78.90;;;20.26;82.94;100763.88;4996949;28;19929;-65
2021/08/21 10:00:11;;;;;;;;;;;22.90;79.00;;;20.28;83.96;100758.94;4999242;28;20416;-66
2021/08/21 10:02:44;;;;;;;;;;;22.90;79.30;;;20.34;81.40;100761.84;5000386;28;20424;-66
2021/08/21 10:05:11;;;;;;;;;;;23.00;78.10;;;20.36;83.13;100762.44;4999969;28;20044;-65
2021/08/21 10:07:43;;;;;;;;;;;23.10;78.80;;;20.40;84.38;100764.44;4997452;28;19925;-65
2021/08/21 10:10:11;;;;;;;;;;;23.20;79.30;;;20.36;81.90;100754.97;4999254;28;20360;-66
2021/08/21 10:12:44;;;;;;;;;;;23.20;77.40;;;20.41;84.83;100757.84;4998433;28;19933;-65
2021/08/21 10:15:13;;;;;;;;;;;23.20;78.30;;;20.46;83.17;100751.56;4997922;28;20452;-65
2021/08/21 10:17:44;;;;;;;;;;;23.30;78.30;;;20.47;80.46;100759.63;4999756;28;20028;-66
2021/08/21 10:20:13;;;;;;;;;;;23.40;76.50;;;20.67;79.38;100745.38;4997684;28;19933;-66
2021/08/21 10:22:40;;;;;;;;;;;23.40;75.90;;;20.72;79.69;100752.97;4996595;28;19964;-66
2021/08/21 10:25:09;;;;;;;;;;;23.50;76.10;;;20.77;81.05;100757.75;4997413;28;20016;-66
2021/08/21 10:27:39;;;;;;;;;;;23.50;77.00;;;20.77;77.15;100757.75;4997525;28;19929;-66
2021/08/21 10:30:08;;;;;;;;;;;23.50;74.70;;;20.73;79.55;100749.09;4997580;28;19929;-66
2021/08/21 10:32:37;;;;;;;;;;;23.50;75.80;;;20.81;80.38;100750.63;4998813;28;20355;-66
2021/08/21 10:35:06;;;;;;;;;;;23.50;76.30;;;20.75;80.26;100749.69;4995936;28;19934;-66
2021/08/21 10:37:35;;;;;;;;;;;23.50;76.70;;;20.82;80.26;100746.78;4997742;28;19930;-66
2021/08/21 10:40:17;;;;;;;;;;;23.50;76.70;;;;;;4998949;28;19957;-66
2021/08/21 10:42:53;;;;;;;;;;;23.50;76.30;;;20.78;78.53;100740.91;4981478;28;19976;-66
2021/08/21 10:45:46;;;;;;;;;;;23.50;73.80;;;20.76;76.61;100753.31;4997356;28;19929;-66
2021/08/21 10:48:14;;;;;;;;;;;23.50;73.90;;;20.78;78.45;100745.59;4996605;28;19976;-66
2021/08/21 10:50:46;;;;;;;;;;;23.50;75.00;;;20.89;81.04;100737.25;4998215;28;20400;-66
2021/08/21 10:53:22;;;;;;;;;;;23.60;76.40;;;21.09;80.77;100745.09;4997710;28;19930;-66
2021/08/21 10:55:50;;;;;;;;;;;23.70;77.00;;;21.19;79.25;100744.44;4996194;28;20439;-66
2021/08/21 10:58:18;;;;;;;;;;;23.80;76.70;;;21.21;77.32;100741.41;4999128;28;19929;-66
2021/08/21 11:00:54;;;;;;;;;;;23.80;74.50;;;21.18;78.33;100744.69;4998866;28;19961;-66
2021/08/21 11:03:44;;;;;;;;;;;23.80;75.30;;;21.19;81.50;100747.22;4998557;28;19929;-66
2021/08/21 11:06:14;;;;;;;;;;;23.90;76.80;;;21.27;77.06;100740.44;4998012;28;19956;-66
2021/08/21 11:09:05;;;;;;;;;;;23.90;74.10;;;21.22;74.42;100740.31;4996649;28;19972;-66
2021/08/21 11:11:37;;;;;;;;;;;23.90;72.10;;;21.16;74.87;100736.63;4995041;28;19936;-66
2021/08/21 11:14:06;;;;;;;;;;;23.70;72.80;;;21.11;74.24;100738.47;4998089;28;19929;-67
2021/08/21 11:16:51;;;;;;;;;;;23.70;71.40;;;21.11;74.38;100738.47;4997632;28;19937;-66
2021/08/21 11:19:39;;;;;;;;;;;23.70;72.30;;;21.17;74.65;100727.25;5000287;28;19930;-66
2021/08/21 11:22:22;;;;;;;;;;;23.80;72.80;;;21.21;72.25;100730.31;4992961;28;20366;-66